Parkman, WY (82838)

11:56 PM MST on February 08, 2016 (GMT -0700)
KWYSHERI2 | | Change Station
CLOSE
Current Station
Personal Weather Station
Location: Sheridan, WY
Elevation: 3828 ft
Nearby Weather Stations

Elev 3828 ft 44.81 °N, 106.98 °W | Updated 4 minutes ago

Clear
Clear
41.6 °F
Feels Like 42 °F
N
0.0
Wind Variable Wind from WNW
Gusts 0.0 mph

Today
High -- | Low -- °F
--% Chance of Precip.
Yesterday
High -- | Low -- °F
Precip. -- in
Pressure 30.33 in
Visibility -9999.0 miles
Clouds Clear
Windchill 42 °F
Dew Point 28 °F
Humidity 58%
Rainfall in
Snow Depth Not available.
7:20 AM 5:26 PM
New Moon, 1% visible
METAR KSHR 090653Z AUTO 28007KT CLR 03/M02 A3030 RMK AO2 SLP271 T00331022 401111039 $
Pressure 30.33 in
Visibility -9999.0 miles
Clouds Clear
Windchill 42 °F
Dew Point 28 °F
Humidity 58%
Rainfall in
Snow Depth Not available.
7:20 AM 5:26 PM
New Moon, 1% visible
METAR KSHR 090653Z AUTO 28007KT CLR 03/M02 A3030 RMK AO2 SLP271 T00331022 401111039 $

10-Day Weather Forecast

Almanac

Astronomy

Feb. 08, 2016 Rise Set
Actual Time
Civil Twilight
Nautical Twilight
Astronomical Twilight
Moon
Length of Visible Light
Length of Day
Tomorrow will be .
, % of the Moon is Illuminated

Today's Extremes

State Highs State Lows

Community

WunderPhotos

Upload Photos

1,891,571 photos uploaded!

WunderBlog® & News

Nearby

Air Quality

  Air Quality AQ Index Pollutant
Not available.

Snow Depth

Station Depth Elevation

Earthquake Activity

City Distance Mag. Time & Date
Minimum magnitude displayed is 2.5.

Coastal Water Temperatures

Place Temperature

Stations

Nearby Weather Stations

Station Location Temp. Windchill Dew Point Humidity Wind Precip. Elev Updated Type
                   

Watches & Warnings

There are currently no watches in effect.